createdAt,value
2022-07-28T00:01:04.756Z,99.90
2022-07-28T00:07:06.850Z,99.90
2022-07-28T00:13:08.647Z,99.90
2022-07-28T00:19:10.579Z,99.90
2022-07-28T00:25:12.585Z,99.90
2022-07-28T00:31:15.100Z,99.90
2022-07-28T00:37:23.817Z,99.90
2022-07-28T00:44:12.745Z,99.90
2022-07-28T00:50:43.003Z,99.90
2022-07-28T01:10:37.876Z,99.90
2022-07-28T01:17:08.599Z,99.90
2022-07-28T01:23:36.229Z,99.90
2022-07-28T01:30:22.544Z,99.90
2022-07-28T01:36:47.009Z,99.90
2022-07-28T01:43:05.150Z,99.90
2022-07-28T01:49:12.449Z,99.90
2022-07-28T01:55:46.222Z,99.90
2022-07-28T02:02:03.605Z,99.90
2022-07-28T02:16:04.909Z,99.90
2022-07-28T02:37:29.820Z,99.90
2022-07-28T02:51:02.874Z,99.90
2022-07-28T02:57:37.736Z,99.90
2022-07-28T03:04:28.198Z,99.90
2022-07-28T03:11:25.186Z,99.90
2022-07-28T03:17:45.328Z,99.90
2022-07-28T03:24:29.437Z,99.90
2022-07-28T03:30:57.733Z,99.90
2022-07-28T03:45:17.614Z,99.90
2022-07-28T03:51:19.486Z,99.90
2022-07-28T03:57:21.359Z,99.90
2022-07-28T04:03:43.252Z,99.90
2022-07-28T04:09:45.530Z,99.90
2022-07-28T04:15:47.396Z,99.90
2022-07-28T04:21:49.256Z,99.90
2022-07-28T04:27:51.729Z,99.90
2022-07-28T04:33:53.595Z,99.90
2022-07-28T04:39:55.423Z,99.90
2022-07-28T04:45:57.869Z,99.90
2022-07-28T04:51:59.882Z,99.90
2022-07-28T04:58:02.044Z,99.90
2022-07-28T05:04:04.113Z,99.90
2022-07-28T05:10:09.010Z,99.90
2022-07-28T05:16:10.957Z,99.90
2022-07-28T05:22:12.981Z,99.90
2022-07-28T05:28:14.831Z,99.90
2022-07-28T05:34:18.991Z,99.90
2022-07-28T05:40:20.929Z,99.90
2022-07-28T05:46:22.930Z,99.90
2022-07-28T05:52:24.870Z,99.90
2022-07-28T05:58:26.761Z,99.90
2022-07-28T06:04:29.288Z,99.90
2022-07-28T06:10:51.778Z,99.90
2022-07-28T06:16:53.708Z,99.90
2022-07-28T06:22:56.016Z,99.90
2022-07-28T06:28:57.905Z,99.90
2022-07-28T06:35:00.264Z,99.90
2022-07-28T06:41:02.193Z,99.90
2022-07-28T06:47:04.131Z,99.90
2022-07-28T06:53:06.394Z,99.90
2022-07-28T06:59:08.333Z,99.90
2022-07-28T07:05:11.846Z,99.90
2022-07-28T07:11:13.815Z,99.90
2022-07-28T07:17:15.740Z,99.90
2022-07-28T07:23:17.661Z,99.90
2022-07-28T07:29:22.247Z,99.90
2022-07-28T07:35:24.142Z,99.90
2022-07-28T07:41:26.115Z,99.90
2022-07-28T07:47:28.073Z,99.90
2022-07-28T07:53:30.025Z,99.90
2022-07-28T07:59:31.918Z,99.90
2022-07-28T08:05:35.754Z,99.90
2022-07-28T08:11:38.180Z,99.90
2022-07-28T08:17:40.047Z,99.90
2022-07-28T08:23:42.035Z,99.90
2022-07-28T08:29:44.324Z,99.90
2022-07-28T08:35:47.279Z,99.90
2022-07-28T08:41:59.716Z,99.90
2022-07-28T08:48:09.244Z,99.90
2022-07-28T08:54:16.193Z,99.90
2022-07-28T09:00:18.301Z,99.90
2022-07-28T09:06:22.132Z,99.90
2022-07-28T09:12:27.140Z,99.90
2022-07-28T09:18:29.459Z,99.60
2022-07-28T09:24:42.458Z,99.40
2022-07-28T09:30:53.640Z,97.70
2022-07-28T09:36:56.974Z,98.30
2022-07-28T09:42:58.895Z,96.60
2022-07-28T09:49:01.341Z,94.90
2022-07-28T09:55:11.605Z,93.90
2022-07-28T10:01:20.985Z,93.50
2022-07-28T10:07:23.171Z,93.20
2022-07-28T10:13:27.817Z,92.50
2022-07-28T10:19:29.762Z,91.30
2022-07-28T10:25:33.822Z,91.60
2022-07-28T10:31:39.311Z,89.90
2022-07-28T10:38:03.052Z,88.20
2022-07-28T10:44:05.700Z,83.70
2022-07-28T10:50:08.753Z,84.80
2022-07-28T10:56:28.224Z,81.40
2022-07-28T11:02:50.474Z,76.10
2022-07-28T11:08:53.489Z,76.00
2022-07-28T11:14:55.448Z,77.70
2022-07-28T11:21:00.578Z,78.90
2022-07-28T11:27:04.213Z,79.50
2022-07-28T11:33:09.447Z,78.70
2022-07-28T11:39:25.342Z,80.00
2022-07-28T11:45:38.700Z,75.50
2022-07-28T11:51:51.274Z,77.70
2022-07-28T11:57:54.602Z,76.40
2022-07-28T12:03:59.367Z,75.60
2022-07-28T12:10:02.360Z,75.20
2022-07-28T12:16:04.477Z,75.00
2022-07-28T12:22:15.854Z,73.60
2022-07-28T12:28:25.686Z,72.10
2022-07-28T12:34:30.375Z,73.30
2022-07-28T12:40:33.411Z,70.80
2022-07-28T12:46:35.442Z,67.40
2022-07-28T12:52:37.402Z,68.60
2022-07-28T12:58:39.773Z,67.90
2022-07-28T13:04:50.076Z,63.80
2022-07-28T13:10:56.993Z,64.90
2022-07-28T13:17:01.057Z,66.10
2022-07-28T13:23:02.959Z,62.90
2022-07-28T13:29:12.828Z,65.90
2022-07-28T13:35:15.780Z,62.90
2022-07-28T13:41:20.845Z,63.80
2022-07-28T13:47:23.180Z,67.00
2022-07-28T13:53:25.570Z,61.10
2022-07-28T13:59:27.551Z,59.90
2022-07-28T14:05:32.370Z,62.10
2022-07-28T14:11:36.505Z,59.20
2022-07-28T14:17:43.576Z,58.00
2022-07-28T14:23:47.244Z,58.70
2022-07-28T14:29:49.245Z,60.70
2022-07-28T14:35:51.065Z,60.80
2022-07-28T14:41:53.379Z,57.90
2022-07-28T14:47:56.039Z,57.70
2022-07-28T14:53:57.982Z,59.50
2022-07-28T14:59:59.843Z,57.40
2022-07-28T15:06:01.916Z,57.20
2022-07-28T15:12:04.076Z,57.80
2022-07-28T15:18:05.996Z,59.40
2022-07-28T15:24:09.248Z,56.30
2022-07-28T15:30:11.860Z,56.90
2022-07-28T15:36:14.542Z,57.30
2022-07-28T15:42:16.596Z,59.10
2022-07-28T15:48:18.484Z,56.30
2022-07-28T15:54:20.312Z,56.90
2022-07-28T16:00:22.388Z,56.90
2022-07-28T16:06:24.922Z,55.10
2022-07-28T16:12:26.920Z,55.30
2022-07-28T16:18:29.317Z,53.30
2022-07-28T16:24:31.249Z,52.60
2022-07-28T16:30:35.644Z,52.80
2022-07-28T16:36:39.818Z,55.40
2022-07-28T16:42:41.893Z,52.30
2022-07-28T16:48:43.813Z,54.70
2022-07-28T16:54:46.024Z,52.90
2022-07-28T17:00:50.518Z,52.50
2022-07-28T17:06:52.361Z,55.00
2022-07-28T17:12:54.382Z,55.30
2022-07-28T17:18:56.247Z,52.40
2022-07-28T17:24:58.224Z,54.40
2022-07-28T17:31:00.247Z,51.50
2022-07-28T17:37:02.404Z,52.10
2022-07-28T17:43:04.257Z,51.90
2022-07-28T17:49:07.913Z,51.70
2022-07-28T17:55:28.969Z,51.00
2022-07-28T18:01:33.126Z,52.20
2022-07-28T18:07:51.234Z,53.80
2022-07-28T18:14:04.395Z,54.30
2022-07-28T18:20:07.772Z,54.70
2022-07-28T18:26:09.673Z,57.60
2022-07-28T18:32:12.253Z,59.80
2022-07-28T18:38:14.119Z,64.50
2022-07-28T18:44:17.738Z,68.90
2022-07-28T18:50:30.944Z,72.30
2022-07-28T18:56:33.762Z,74.80
2022-07-28T19:02:37.607Z,78.80
2022-07-28T19:08:39.606Z,80.20
2022-07-28T19:14:41.589Z,83.10
2022-07-28T19:20:46.572Z,85.50
2022-07-28T19:26:51.213Z,87.00
2022-07-28T19:32:53.097Z,88.40
2022-07-28T19:38:54.939Z,90.50
2022-07-28T19:44:56.818Z,90.70
2022-07-28T19:50:58.735Z,91.20
2022-07-28T19:57:00.801Z,92.40
2022-07-28T20:03:02.842Z,93.10
2022-07-28T20:09:05.515Z,94.20
2022-07-28T20:15:08.031Z,94.70
2022-07-28T20:21:09.865Z,94.80
2022-07-28T20:27:11.736Z,95.00
2022-07-28T20:33:13.632Z,95.20
2022-07-28T20:39:43.427Z,95.40
2022-07-28T20:45:37.982Z,95.80
2022-07-28T20:51:40.143Z,96.30
2022-07-28T20:57:55.931Z,96.50
2022-07-28T21:03:58.794Z,97.00
2022-07-28T21:10:00.933Z,97.80
2022-07-28T21:16:02.840Z,98.50
2022-07-28T21:22:04.834Z,99.70
2022-07-28T21:28:25.319Z,99.90
2022-07-28T21:34:27.201Z,99.90
2022-07-28T21:40:29.119Z,99.90
2022-07-28T21:46:32.393Z,99.90
2022-07-28T21:52:35.202Z,99.90
2022-07-28T21:58:37.125Z,99.90
2022-07-28T22:04:39.067Z,99.90
2022-07-28T22:10:40.992Z,99.90
2022-07-28T22:16:43.101Z,99.90
2022-07-28T22:22:45.094Z,99.90
2022-07-28T22:28:47.066Z,99.90
2022-07-28T22:34:48.880Z,99.90
2022-07-28T22:40:53.382Z,99.90
2022-07-28T22:46:57.839Z,99.90
2022-07-28T22:52:59.845Z,99.90
2022-07-28T22:59:04.334Z,99.90
2022-07-28T23:05:06.559Z,99.90
2022-07-28T23:11:08.842Z,99.90
2022-07-28T23:17:10.748Z,99.90
2022-07-28T23:23:14.942Z,99.90
2022-07-28T23:29:16.910Z,99.90
2022-07-28T23:35:22.435Z,99.90
2022-07-28T23:41:25.482Z,99.90
2022-07-28T23:47:27.665Z,99.90
2022-07-28T23:53:37.589Z,99.90
2022-07-28T23:59:39.730Z,99.90
